createdAt,value
2023-05-14T00:01:07.640Z,52.84
2023-05-14T00:04:12.900Z,52.87
2023-05-14T00:07:18.590Z,52.93
2023-05-14T00:10:26.213Z,53.06
2023-05-14T00:13:32.303Z,53.13
2023-05-14T00:16:38.153Z,53.33
2023-05-14T00:19:46.397Z,53.47
2023-05-14T00:22:51.899Z,53.50
2023-05-14T00:25:57.302Z,53.50
2023-05-14T00:29:02.634Z,53.57
2023-05-14T00:32:09.140Z,53.67
2023-05-14T00:35:16.011Z,53.73
2023-05-14T00:38:22.780Z,53.72
2023-05-14T00:41:28.273Z,53.83
2023-05-14T00:44:34.352Z,53.96
2023-05-14T00:47:45.949Z,54.06
2023-05-14T00:50:51.113Z,54.13
2023-05-14T00:53:57.635Z,54.25
2023-05-14T00:57:03.701Z,54.25
2023-05-14T01:00:10.048Z,54.29
2023-05-14T01:03:14.850Z,54.45
2023-05-14T01:07:08.626Z,54.56
2023-05-14T01:10:28.747Z,54.65
2023-05-14T01:13:59.514Z,54.77
2023-05-14T01:17:08.728Z,54.88
2023-05-14T01:20:15.905Z,54.90
2023-05-14T01:23:21.859Z,55.09
2023-05-14T01:26:28.372Z,55.30
2023-05-14T01:29:38.241Z,55.38
2023-05-14T01:32:45.166Z,55.37
2023-05-14T01:35:51.590Z,55.49
2023-05-14T01:38:58.400Z,55.63
2023-05-14T01:42:04.345Z,55.77
2023-05-14T01:45:11.518Z,55.86
2023-05-14T01:48:19.803Z,55.86
2023-05-14T01:51:25.693Z,55.85
2023-05-14T01:54:30.589Z,55.99
2023-05-14T01:57:36.806Z,56.16
2023-05-14T02:00:41.945Z,56.26
2023-05-14T02:03:49.946Z,56.33
2023-05-14T02:06:55.428Z,56.40
2023-05-14T02:10:01.414Z,56.50
2023-05-14T02:13:07.923Z,56.61
2023-05-14T02:16:14.619Z,56.71
2023-05-14T02:19:21.699Z,56.65
2023-05-14T02:22:26.903Z,56.64
2023-05-14T02:25:31.907Z,56.68
2023-05-14T02:28:37.023Z,56.68
2023-05-14T02:31:44.673Z,56.76
2023-05-14T02:34:50.993Z,56.82
2023-05-14T02:37:57.183Z,56.86
2023-05-14T02:41:02.280Z,56.90
2023-05-14T02:44:08.003Z,56.96
2023-05-14T02:47:13.660Z,57.04
2023-05-14T02:50:20.117Z,57.11
2023-05-14T02:53:24.944Z,57.20
2023-05-14T02:56:30.688Z,57.24
2023-05-14T02:59:39.434Z,57.28
2023-05-14T03:02:46.921Z,57.36
2023-05-14T03:05:54.944Z,57.42
2023-05-14T03:09:01.770Z,57.46
2023-05-14T03:12:07.893Z,57.46
2023-05-14T03:15:14.381Z,57.46
2023-05-14T03:18:20.305Z,57.46
2023-05-14T03:21:25.624Z,57.47
2023-05-14T03:24:31.910Z,57.51
2023-05-14T03:27:37.408Z,57.55
2023-05-14T03:30:44.650Z,57.60
2023-05-14T03:33:51.514Z,57.66
2023-05-14T03:36:57.906Z,57.69
2023-05-14T03:40:03.861Z,57.73
2023-05-14T03:43:09.365Z,57.76
2023-05-14T03:46:15.228Z,57.79
2023-05-14T03:49:21.844Z,57.77
2023-05-14T03:52:27.334Z,57.77
2023-05-14T03:55:37.317Z,57.80
2023-05-14T03:58:43.194Z,57.85
2023-05-14T04:01:48.525Z,57.81
2023-05-14T04:04:54.104Z,57.82
2023-05-14T04:08:05.079Z,57.83
2023-05-14T04:11:11.818Z,57.85
2023-05-14T04:14:20.521Z,57.88
2023-05-14T04:17:25.199Z,57.93
2023-05-14T04:20:30.080Z,57.96
2023-05-14T04:23:38.593Z,57.99
2023-05-14T04:26:43.913Z,57.98
2023-05-14T04:29:49.337Z,57.99
2023-05-14T04:32:55.738Z,57.97
2023-05-14T04:36:02.133Z,57.90
2023-05-14T04:39:07.711Z,57.89
2023-05-14T04:42:14.450Z,57.87
2023-05-14T04:45:21.011Z,57.84
2023-05-14T04:48:25.634Z,57.82
2023-05-14T04:51:32.191Z,57.83
2023-05-14T04:54:39.326Z,57.84
2023-05-14T04:57:44.986Z,57.83
2023-05-14T05:00:51.688Z,57.84
2023-05-14T05:03:58.036Z,57.80
2023-05-14T05:07:05.359Z,57.73
2023-05-14T05:10:13.328Z,57.65
2023-05-14T05:13:19.249Z,57.55
2023-05-14T05:16:26.330Z,57.41
2023-05-14T05:19:43.104Z,57.35
2023-05-14T05:22:41.211Z,57.20
2023-05-14T05:25:46.547Z,57.12
2023-05-14T05:28:52.303Z,56.91
2023-05-14T05:31:57.912Z,56.72
2023-05-14T05:35:03.588Z,56.49
2023-05-14T05:38:08.955Z,56.28
2023-05-14T05:41:15.257Z,56.05
2023-05-14T05:44:21.360Z,55.78
2023-05-14T05:47:28.032Z,55.56
2023-05-14T05:50:33.601Z,55.32
2023-05-14T05:53:40.168Z,55.20
2023-05-14T05:56:45.912Z,54.95
2023-05-14T05:59:51.258Z,54.69
2023-05-14T06:02:57.117Z,54.46
2023-05-14T06:06:03.289Z,54.17
2023-05-14T06:09:13.078Z,53.89
2023-05-14T06:12:20.469Z,53.63
2023-05-14T06:15:27.245Z,53.35
2023-05-14T06:18:32.758Z,53.01
2023-05-14T06:21:39.540Z,52.75
2023-05-14T06:24:45.434Z,52.40
2023-05-14T06:27:52.554Z,52.13
2023-05-14T06:30:57.804Z,51.86
2023-05-14T06:34:03.744Z,51.58
2023-05-14T06:37:10.761Z,51.25
2023-05-14T06:40:16.884Z,50.94
2023-05-14T06:43:24.870Z,50.67
2023-05-14T06:46:31.016Z,50.28
2023-05-14T06:49:36.881Z,49.96
2023-05-14T06:52:43.213Z,49.70
2023-05-14T06:55:50.432Z,49.37
2023-05-14T06:58:57.212Z,49.11
2023-05-14T07:02:03.603Z,48.79
2023-05-14T07:05:10.057Z,48.47
2023-05-14T07:08:17.238Z,48.19
2023-05-14T07:11:23.903Z,47.89
2023-05-14T07:14:32.552Z,47.62
2023-05-14T07:17:38.292Z,47.31
2023-05-14T07:20:44.444Z,47.01
2023-05-14T07:23:51.050Z,46.75
2023-05-14T07:26:55.876Z,46.44
2023-05-14T07:30:02.168Z,46.14
2023-05-14T07:33:08.816Z,45.79
2023-05-14T07:36:15.671Z,45.52
2023-05-14T07:39:21.221Z,45.15
2023-05-14T07:42:35.865Z,44.84
2023-05-14T07:45:34.865Z,44.52
2023-05-14T07:48:40.806Z,44.23
2023-05-14T07:51:48.568Z,43.96
2023-05-14T07:54:56.447Z,43.70
2023-05-14T07:58:04.329Z,43.29
2023-05-14T08:01:11.197Z,43.00
2023-05-14T08:04:18.365Z,42.65
2023-05-14T08:07:23.333Z,42.28
2023-05-14T08:10:29.740Z,41.95
2023-05-14T08:13:35.871Z,41.70
2023-05-14T08:16:41.000Z,41.37
2023-05-14T08:19:48.947Z,41.08
2023-05-14T08:22:54.810Z,40.79
2023-05-14T08:26:00.948Z,40.46
2023-05-14T08:29:10.785Z,40.25
2023-05-14T08:32:23.498Z,40.06
2023-05-14T08:35:24.393Z,39.74
2023-05-14T08:38:30.013Z,39.40
2023-05-14T08:41:37.413Z,39.04
2023-05-14T08:44:58.191Z,38.79
2023-05-14T08:48:08.192Z,38.42
2023-05-14T08:51:13.365Z,38.03
2023-05-14T08:54:23.359Z,37.78
2023-05-14T08:57:32.008Z,37.54
2023-05-14T09:00:37.929Z,37.28
2023-05-14T09:03:43.361Z,36.98
2023-05-14T09:06:51.570Z,36.70
2023-05-14T09:09:58.521Z,36.43
2023-05-14T09:13:03.583Z,36.19
2023-05-14T09:16:09.679Z,35.95
2023-05-14T09:19:16.365Z,35.92
2023-05-14T09:22:28.988Z,35.78
2023-05-14T09:25:34.374Z,35.54
2023-05-14T09:28:41.221Z,35.16
2023-05-14T09:31:47.961Z,34.75
2023-05-14T09:34:54.391Z,34.39
2023-05-14T09:38:01.714Z,34.06
2023-05-14T09:41:07.626Z,33.81
2023-05-14T09:44:12.340Z,33.58
2023-05-14T09:47:17.507Z,33.42
2023-05-14T09:50:25.631Z,33.30
2023-05-14T09:53:34.623Z,32.99
2023-05-14T09:56:41.492Z,32.79
2023-05-14T09:59:48.733Z,32.65
2023-05-14T10:02:55.884Z,32.27
2023-05-14T10:06:03.534Z,32.08
2023-05-14T10:09:14.164Z,31.94
2023-05-14T10:12:20.575Z,31.66
2023-05-14T10:15:30.472Z,31.37
2023-05-14T10:18:38.377Z,31.15
2023-05-14T10:21:44.668Z,30.82
2023-05-14T10:24:49.861Z,30.67
2023-05-14T10:27:55.106Z,30.46
2023-05-14T10:31:02.116Z,30.16
2023-05-14T10:34:08.596Z,29.94
2023-05-14T10:37:17.933Z,29.68
2023-05-14T10:40:27.449Z,29.48
2023-05-14T10:43:33.260Z,29.30
2023-05-14T10:46:39.145Z,29.15
2023-05-14T10:49:45.641Z,29.04
2023-05-14T10:52:51.360Z,28.90
2023-05-14T10:55:58.579Z,28.79
2023-05-14T10:59:05.000Z,28.68
2023-05-14T11:02:14.957Z,28.41
2023-05-14T11:05:25.620Z,28.27
2023-05-14T11:08:32.109Z,28.20
2023-05-14T11:11:37.866Z,28.14
2023-05-14T11:14:43.450Z,28.11
2023-05-14T11:17:48.988Z,27.93
2023-05-14T11:20:54.763Z,27.85
2023-05-14T11:24:04.041Z,27.61
2023-05-14T11:27:08.920Z,27.61
2023-05-14T11:30:14.076Z,27.23
2023-05-14T11:33:20.665Z,26.86
2023-05-14T11:36:26.140Z,26.69
2023-05-14T11:39:34.494Z,26.57
2023-05-14T11:42:42.754Z,26.56
2023-05-14T11:45:50.312Z,26.48
2023-05-14T11:48:56.647Z,26.54
2023-05-14T11:52:02.055Z,26.63
2023-05-14T11:55:08.080Z,26.55
2023-05-14T11:58:13.475Z,26.58
2023-05-14T12:01:20.732Z,26.62
2023-05-14T12:04:31.027Z,26.72
2023-05-14T12:07:38.022Z,26.75
2023-05-14T12:10:43.193Z,26.82
2023-05-14T12:13:51.075Z,26.86
2023-05-14T12:16:57.845Z,26.94
2023-05-14T12:20:04.642Z,27.12
2023-05-14T12:23:10.292Z,27.27
2023-05-14T12:26:23.704Z,27.29
2023-05-14T12:29:29.293Z,27.27
2023-05-14T12:32:34.989Z,27.28
2023-05-14T12:35:39.945Z,27.31
2023-05-14T12:38:47.605Z,27.37
2023-05-14T12:41:52.809Z,27.36
2023-05-14T12:44:59.790Z,27.41
2023-05-14T12:48:05.194Z,27.39
2023-05-14T12:51:10.977Z,27.32
2023-05-14T12:54:18.162Z,27.28
2023-05-14T12:57:24.127Z,27.19
2023-05-14T13:00:31.148Z,27.09
2023-05-14T13:03:37.394Z,26.98
2023-05-14T13:06:46.236Z,26.81
2023-05-14T13:09:52.557Z,26.74
2023-05-14T13:12:59.539Z,26.71
2023-05-14T13:16:05.902Z,26.60
2023-05-14T13:19:13.352Z,26.41
2023-05-14T13:22:18.322Z,26.33
2023-05-14T13:25:24.849Z,26.19
2023-05-14T13:28:30.678Z,26.09
2023-05-14T13:31:36.959Z,26.13
2023-05-14T13:34:43.469Z,26.07
2023-05-14T13:37:48.273Z,26.05
2023-05-14T13:40:53.693Z,26.07
2023-05-14T13:43:59.744Z,26.02
2023-05-14T13:47:06.560Z,25.88
2023-05-14T13:50:13.189Z,25.79
2023-05-14T13:53:18.833Z,25.75
2023-05-14T13:56:26.614Z,25.68
2023-05-14T13:59:33.152Z,25.74
2023-05-14T14:02:38.663Z,25.71
2023-05-14T14:05:44.964Z,25.78
2023-05-14T14:08:51.325Z,25.80
2023-05-14T14:11:57.896Z,25.83
2023-05-14T14:15:06.197Z,25.92
2023-05-14T14:18:11.770Z,26.00
2023-05-14T14:21:18.031Z,26.07
2023-05-14T14:24:24.802Z,26.07
2023-05-14T14:27:31.152Z,25.88
2023-05-14T14:30:36.453Z,25.82
2023-05-14T14:33:42.527Z,25.67
2023-05-14T14:36:48.034Z,25.56
2023-05-14T14:39:54.764Z,25.28
2023-05-14T14:43:00.433Z,25.25
2023-05-14T14:46:05.936Z,25.21
2023-05-14T14:49:12.581Z,25.02
2023-05-14T14:52:18.843Z,24.88
2023-05-14T14:55:25.006Z,24.91
2023-05-14T14:58:30.983Z,24.91
2023-05-14T15:01:36.746Z,24.79
2023-05-14T15:04:43.737Z,24.53
2023-05-14T15:07:51.572Z,24.56
2023-05-14T15:11:00.119Z,24.65
2023-05-14T15:14:06.076Z,24.59
2023-05-14T15:17:12.751Z,24.43
2023-05-14T15:20:11.259Z,24.18
2023-05-14T15:22:58.656Z,24.12
2023-05-14T15:25:50.751Z,24.02
2023-05-14T15:28:37.954Z,24.02
2023-05-14T15:31:32.919Z,24.03
2023-05-14T15:34:25.676Z,24.15
2023-05-14T15:37:31.648Z,24.24
2023-05-14T15:40:38.000Z,24.33
2023-05-14T15:43:43.421Z,24.48
2023-05-14T15:46:49.879Z,24.48
2023-05-14T15:49:55.978Z,24.30
2023-05-14T15:53:02.525Z,24.47
2023-05-14T15:56:11.318Z,24.79
2023-05-14T15:59:17.280Z,24.82
2023-05-14T16:02:23.162Z,24.62
2023-05-14T16:05:29.190Z,24.49
2023-05-14T16:08:33.930Z,24.44
2023-05-14T16:11:39.801Z,24.39
2023-05-14T16:14:44.982Z,24.24
2023-05-14T16:17:51.615Z,24.21
2023-05-14T16:20:56.248Z,24.34
2023-05-14T16:24:03.283Z,24.57
2023-05-14T16:27:08.131Z,24.85
2023-05-14T16:30:14.492Z,25.08
2023-05-14T16:33:20.535Z,25.28
2023-05-14T16:36:27.348Z,25.49
2023-05-14T16:39:33.169Z,25.65
2023-05-14T16:42:39.229Z,25.81
2023-05-14T16:45:47.036Z,26.02
2023-05-14T16:48:53.089Z,26.20
2023-05-14T16:51:59.184Z,26.32
2023-05-14T16:55:04.312Z,26.51
2023-05-14T16:58:11.457Z,26.70
2023-05-14T17:01:18.233Z,26.85
2023-05-14T17:04:25.963Z,27.05
2023-05-14T17:07:32.318Z,27.22
2023-05-14T17:10:39.312Z,27.44
2023-05-14T17:13:45.138Z,27.67
2023-05-14T17:16:52.572Z,27.89
2023-05-14T17:19:58.326Z,28.09
2023-05-14T17:23:03.872Z,28.28
2023-05-14T17:26:09.887Z,28.52
2023-05-14T17:29:10.143Z,28.68
2023-05-14T17:32:16.890Z,28.88
2023-05-14T17:35:23.481Z,29.11
2023-05-14T17:38:32.084Z,29.39
2023-05-14T17:41:38.429Z,29.59
2023-05-14T17:44:45.004Z,29.81
2023-05-14T17:47:52.239Z,30.03
2023-05-14T17:50:59.012Z,30.31
2023-05-14T17:54:05.068Z,30.58
2023-05-14T17:57:11.802Z,30.94
2023-05-14T18:00:18.398Z,31.26
2023-05-14T18:03:25.304Z,31.58
2023-05-14T18:06:30.979Z,31.91
2023-05-14T18:09:36.356Z,32.26
2023-05-14T18:12:42.454Z,32.63
2023-05-14T18:15:48.514Z,33.04
2023-05-14T18:18:56.361Z,33.40
2023-05-14T18:22:02.625Z,33.78
2023-05-14T18:25:10.559Z,34.09
2023-05-14T18:28:15.736Z,34.43
2023-05-14T18:31:22.752Z,34.78
2023-05-14T18:34:29.555Z,35.09
2023-05-14T18:37:35.680Z,35.44
2023-05-14T18:40:41.491Z,35.76
2023-05-14T18:43:47.514Z,36.11
2023-05-14T18:46:54.766Z,36.45
2023-05-14T18:50:02.282Z,36.81
2023-05-14T18:53:09.226Z,37.14
2023-05-14T18:56:16.157Z,37.44
2023-05-14T18:59:22.146Z,37.82
2023-05-14T19:02:27.305Z,38.11
2023-05-14T19:05:33.167Z,38.35
2023-05-14T19:08:39.403Z,38.60
2023-05-14T19:11:49.379Z,38.82
2023-05-14T19:14:54.466Z,39.06
2023-05-14T19:18:01.331Z,39.34
2023-05-14T19:21:09.059Z,39.59
2023-05-14T19:24:15.472Z,39.87
2023-05-14T19:27:23.760Z,40.18
2023-05-14T19:30:30.537Z,40.43
2023-05-14T19:33:36.518Z,40.73
2023-05-14T19:36:43.262Z,41.02
2023-05-14T19:39:49.998Z,41.32
2023-05-14T19:42:55.489Z,41.59
2023-05-14T19:46:01.645Z,41.82
2023-05-14T19:49:08.869Z,42.09
2023-05-14T19:52:15.587Z,42.37
2023-05-14T19:55:23.519Z,42.59
2023-05-14T19:58:32.002Z,42.81
2023-05-14T20:01:41.170Z,43.08
2023-05-14T20:04:47.800Z,43.29
2023-05-14T20:07:55.638Z,43.63
2023-05-14T20:11:04.152Z,43.91
2023-05-14T20:14:10.582Z,44.17
2023-05-14T20:17:17.909Z,44.33
2023-05-14T20:20:25.811Z,44.45
2023-05-14T20:23:33.683Z,44.68
2023-05-14T20:26:39.927Z,44.86
2023-05-14T20:29:46.460Z,44.99
2023-05-14T20:32:53.733Z,45.09
2023-05-14T20:36:01.105Z,45.24
2023-05-14T20:39:08.498Z,45.49
2023-05-14T20:42:14.238Z,45.66
2023-05-14T20:45:21.969Z,45.82
2023-05-14T20:48:28.985Z,45.98
2023-05-14T20:51:35.884Z,46.16
2023-05-14T20:54:41.602Z,46.36
2023-05-14T20:57:47.560Z,46.58
2023-05-14T21:00:54.548Z,46.71
2023-05-14T21:04:01.099Z,46.84
2023-05-14T21:07:09.806Z,46.91
2023-05-14T21:10:15.860Z,47.06
2023-05-14T21:13:21.659Z,47.32
2023-05-14T21:16:27.483Z,47.50
2023-05-14T21:19:33.660Z,47.66
2023-05-14T21:22:41.532Z,47.88
2023-05-14T21:25:46.966Z,48.03
2023-05-14T21:28:53.251Z,48.15
2023-05-14T21:32:00.564Z,48.35
2023-05-14T21:35:07.403Z,48.51
2023-05-14T21:38:12.508Z,48.71
2023-05-14T21:41:17.877Z,48.93
2023-05-14T21:44:23.662Z,49.02
2023-05-14T21:47:28.858Z,49.21
2023-05-14T21:50:35.883Z,49.36
2023-05-14T21:53:42.016Z,49.57
2023-05-14T21:56:50.070Z,49.68
2023-05-14T21:59:55.703Z,49.79
2023-05-14T22:03:03.193Z,49.91
2023-05-14T22:06:11.249Z,50.09
2023-05-14T22:09:18.190Z,50.14
2023-05-14T22:12:23.950Z,50.28
2023-05-14T22:15:29.662Z,50.42
2023-05-14T22:18:36.451Z,50.55
2023-05-14T22:21:42.638Z,50.80
2023-05-14T22:24:48.372Z,50.97
2023-05-14T22:27:54.321Z,51.15
2023-05-14T22:30:59.927Z,51.22
2023-05-14T22:34:05.665Z,51.16
2023-05-14T22:37:11.418Z,51.18
2023-05-14T22:40:17.084Z,51.29
2023-05-14T22:43:23.380Z,51.48
2023-05-14T22:46:29.521Z,51.65
2023-05-14T22:49:35.264Z,51.78
2023-05-14T22:52:41.462Z,51.89
2023-05-14T22:55:46.932Z,51.96
2023-05-14T22:58:55.021Z,52.03
2023-05-14T23:02:00.309Z,52.00
2023-05-14T23:05:06.175Z,52.08
2023-05-14T23:08:11.504Z,52.26
2023-05-14T23:11:17.795Z,52.43
2023-05-14T23:14:24.910Z,52.62
2023-05-14T23:17:31.804Z,52.79
2023-05-14T23:20:36.883Z,53.01
2023-05-14T23:23:42.162Z,53.18
2023-05-14T23:26:47.441Z,53.24
2023-05-14T23:29:52.586Z,53.32
2023-05-14T23:33:00.288Z,53.34
2023-05-14T23:36:06.552Z,53.41
2023-05-14T23:39:13.600Z,53.49
2023-05-14T23:42:18.582Z,53.55
2023-05-14T23:45:25.301Z,53.75
2023-05-14T23:48:32.138Z,53.89
2023-05-14T23:51:38.661Z,54.01
2023-05-14T23:54:45.114Z,54.19
2023-05-14T23:57:53.865Z,54.32
